sensor_id;sensor_type;location;lat;lon;timestamp;pressure;altitude;pressure_sealevel;temperature;humidity
73455;BME280;61690;51.824;6.306;2023-05-11T00:02:06;101307.88;;;20.60;52.78
73455;BME280;61690;51.824;6.306;2023-05-11T00:04:32;101300.84;;;20.59;52.37
73455;BME280;61690;51.824;6.306;2023-05-11T00:06:57;101309.59;;;20.59;52.83
73455;BME280;61690;51.824;6.306;2023-05-11T00:09:22;101300.00;;;20.58;52.56
73455;BME280;61690;51.824;6.306;2023-05-11T00:11:50;101303.50;;;20.59;52.60
73455;BME280;61690;51.824;6.306;2023-05-11T00:14:16;101295.66;;;20.57;52.42
73455;BME280;61690;51.824;6.306;2023-05-11T00:16:42;101301.91;;;20.56;52.61
73455;BME280;61690;51.824;6.306;2023-05-11T00:19:07;101301.03;;;20.55;52.39
73455;BME280;61690;51.824;6.306;2023-05-11T00:21:32;101308.88;;;20.57;52.43
73455;BME280;61690;51.824;6.306;2023-05-11T00:23:58;101309.72;;;20.57;52.54
73455;BME280;61690;51.824;6.306;2023-05-11T00:26:23;101300.19;;;20.55;52.66
73455;BME280;61690;51.824;6.306;2023-05-11T00:28:48;101302.75;;;20.56;52.48
73455;BME280;61690;51.824;6.306;2023-05-11T00:31:14;101297.47;;;20.56;52.55
73455;BME280;61690;51.824;6.306;2023-05-11T00:33:39;101287.81;;;20.55;52.40
73455;BME280;61690;51.824;6.306;2023-05-11T00:36:05;101298.28;;;20.57;52.53
73455;BME280;61690;51.824;6.306;2023-05-11T00:38:30;101300.09;;;20.56;52.45
73455;BME280;61690;51.824;6.306;2023-05-11T00:40:56;101310.78;;;20.55;52.50
73455;BME280;61690;51.824;6.306;2023-05-11T00:43:22;101317.97;;;20.53;52.49
73455;BME280;61690;51.824;6.306;2023-05-11T00:45:49;101318.69;;;20.55;52.59
73455;BME280;61690;51.824;6.306;2023-05-11T00:48:16;101317.03;;;20.54;52.38
73455;BME280;61690;51.824;6.306;2023-05-11T00:50:43;101318.91;;;20.52;52.42
73455;BME280;61690;51.824;6.306;2023-05-11T00:53:10;101318.69;;;20.55;52.59
73455;BME280;61690;51.824;6.306;2023-05-11T00:55:36;101317.97;;;20.53;52.56
73455;BME280;61690;51.824;6.306;2023-05-11T00:58:02;101312.66;;;20.53;52.35
73455;BME280;61690;51.824;6.306;2023-05-11T01:00:30;101310.22;;;20.50;52.56
73455;BME280;61690;51.824;6.306;2023-05-11T01:02:55;101300.63;;;20.49;52.56
73455;BME280;61690;51.824;6.306;2023-05-11T01:05:21;101297.00;;;20.50;52.29
73455;BME280;61690;51.824;6.306;2023-05-11T01:07:57;101290.88;;;20.49;52.55
73455;BME280;61690;51.824;6.306;2023-05-11T01:13:16;101304.09;;;20.49;52.53
73455;BME280;61690;51.824;6.306;2023-05-11T01:15:51;101300.63;;;20.49;52.45
73455;BME280;61690;51.824;6.306;2023-05-11T01:18:24;101299.88;;;20.47;52.44
73455;BME280;61690;51.824;6.306;2023-05-11T01:20:57;101302.53;;;20.47;52.46
73455;BME280;61690;51.824;6.306;2023-05-11T01:23:42;101311.28;;;20.47;52.29
73455;BME280;61690;51.824;6.306;2023-05-11T01:31:46;101312.44;;;20.43;52.42
73455;BME280;61690;51.824;6.306;2023-05-11T01:34:16;101313.38;;;20.42;52.58
73455;BME280;61690;51.824;6.306;2023-05-11T01:36:50;101308.00;;;20.44;52.72
73455;BME280;61690;51.824;6.306;2023-05-11T01:39:20;101308.00;;;20.44;52.57
73455;BME280;61690;51.824;6.306;2023-05-11T01:41:51;101307.25;;;20.42;52.57
73455;BME280;61690;51.824;6.306;2023-05-11T01:44:18;101307.25;;;20.42;52.43
73455;BME280;61690;51.824;6.306;2023-05-11T01:46:46;101307.34;;;20.40;52.59
73455;BME280;61690;51.824;6.306;2023-05-11T01:49:12;101302.19;;;20.39;52.76
73455;BME280;61690;51.824;6.306;2023-05-11T01:51:39;101310.13;;;20.39;52.63
73455;BME280;61690;51.824;6.306;2023-05-11T01:54:08;101309.25;;;20.38;52.60
73455;BME280;61690;51.824;6.306;2023-05-11T01:56:35;101311.06;;;20.37;52.86
73455;BME280;61690;51.824;6.306;2023-05-11T01:59:02;101307.56;;;20.37;52.90
73455;BME280;61690;51.824;6.306;2023-05-11T02:01:28;101314.75;;;20.35;52.44
73455;BME280;61690;51.824;6.306;2023-05-11T02:03:55;101319.06;;;20.36;52.81
73455;BME280;61690;51.824;6.306;2023-05-11T02:06:22;101316.34;;;20.37;52.21
73455;BME280;61690;51.824;6.306;2023-05-11T02:08:50;101320.03;;;20.35;52.60
73455;BME280;61690;51.824;6.306;2023-05-11T02:11:17;101323.53;;;20.35;52.76
73455;BME280;61690;51.824;6.306;2023-05-11T02:13:45;101322.59;;;20.36;52.60
73455;BME280;61690;51.824;6.306;2023-05-11T02:16:14;101312.22;;;20.33;52.42
73455;BME280;61690;51.824;6.306;2023-05-11T02:18:40;101315.78;;;20.32;52.49
73455;BME280;61690;51.824;6.306;2023-05-11T02:21:08;101315.78;;;20.32;52.63
73455;BME280;61690;51.824;6.306;2023-05-11T02:23:35;101322.03;;;20.31;52.75
73455;BME280;61690;51.824;6.306;2023-05-11T02:26:02;101324.69;;;20.31;52.59
73455;BME280;61690;51.824;6.306;2023-05-11T02:28:29;101323.09;;;20.29;52.76
73455;BME280;61690;51.824;6.306;2023-05-11T02:30:55;101320.47;;;20.29;52.74
73455;BME280;61690;51.824;6.306;2023-05-11T02:33:30;101318.75;;;20.28;52.73
73455;BME280;61690;51.824;6.306;2023-05-11T02:35:58;101323.09;;;20.29;52.90
73455;BME280;61690;51.824;6.306;2023-05-11T02:38:33;101324.78;;;20.30;52.42
73455;BME280;61690;51.824;6.306;2023-05-11T02:41:06;101316.00;;;20.29;52.54
73455;BME280;61690;51.824;6.306;2023-05-11T02:43:35;101316.00;;;20.29;52.52
73455;BME280;61690;51.824;6.306;2023-05-11T02:46:06;101317.91;;;20.27;52.44
73455;BME280;61690;51.824;6.306;2023-05-11T02:48:38;101322.22;;;20.28;52.41
73455;BME280;61690;51.824;6.306;2023-05-11T02:51:06;101323.19;;;20.27;52.58
73455;BME280;61690;51.824;6.306;2023-05-11T02:53:33;101324.03;;;20.28;52.67
73455;BME280;61690;51.824;6.306;2023-05-11T02:56:00;101325.75;;;20.29;52.76
73455;BME280;61690;51.824;6.306;2023-05-11T02:58:26;101325.84;;;20.27;52.66
73455;BME280;61690;51.824;6.306;2023-05-11T03:00:51;101322.31;;;20.27;52.61
73455;BME280;61690;51.824;6.306;2023-05-11T03:03:17;101326.75;;;20.26;52.66
73455;BME280;61690;51.824;6.306;2023-05-11T03:05:42;101334.78;;;20.25;52.75
73455;BME280;61690;51.824;6.306;2023-05-11T03:08:08;101335.66;;;20.25;52.82
73455;BME280;61690;51.824;6.306;2023-05-11T03:10:33;101331.22;;;20.26;52.84
73455;BME280;61690;51.824;6.306;2023-05-11T03:12:59;101328.47;;;20.27;52.46
73455;BME280;61690;51.824;6.306;2023-05-11T03:15:25;101329.41;;;20.26;52.51
73455;BME280;61690;51.824;6.306;2023-05-11T03:17:52;101334.69;;;20.26;52.65
73455;BME280;61690;51.824;6.306;2023-05-11T03:20:21;101334.78;;;20.25;52.51
73455;BME280;61690;51.824;6.306;2023-05-11T03:22:48;101334.03;;;20.23;52.58
73455;BME280;61690;51.824;6.306;2023-05-11T03:25:14;101335.84;;;20.22;52.51
73455;BME280;61690;51.824;6.306;2023-05-11T03:27:41;101334.03;;;20.23;52.71
73455;BME280;61690;51.824;6.306;2023-05-11T03:30:10;101332.28;;;20.23;52.45
73455;BME280;61690;51.824;6.306;2023-05-11T03:32:37;101329.06;;;20.18;52.43
73455;BME280;61690;51.824;6.306;2023-05-11T03:35:03;101326.22;;;20.21;52.54
73455;BME280;61690;51.824;6.306;2023-05-11T03:37:29;101328.47;;;20.27;52.54
73455;BME280;61690;51.824;6.306;2023-05-11T03:39:57;101334.28;;;20.32;52.43
73455;BME280;61690;51.824;6.306;2023-05-11T03:42:24;101333.78;;;20.40;52.16
73455;BME280;61690;51.824;6.306;2023-05-11T03:44:52;101329.88;;;20.46;51.99
73455;BME280;61690;51.824;6.306;2023-05-11T03:47:21;101330.44;;;20.51;51.98
73455;BME280;61690;51.824;6.306;2023-05-11T03:49:47;101318.78;;;20.53;51.84
73455;BME280;61690;51.824;6.306;2023-05-11T03:52:13;101322.81;;;20.59;51.93
73455;BME280;61690;51.824;6.306;2023-05-11T03:54:40;101323.59;;;20.61;51.79
73455;BME280;61690;51.824;6.306;2023-05-11T03:57:08;101327.75;;;20.65;51.83
73455;BME280;61690;51.824;6.306;2023-05-11T03:59:33;101323.06;;;20.69;51.73
73455;BME280;61690;51.824;6.306;2023-05-11T04:01:58;101323.94;;;20.69;51.74
73455;BME280;61690;51.824;6.306;2023-05-11T04:04:28;101318.53;;;20.71;51.58
73455;BME280;61690;51.824;6.306;2023-05-11T04:06:57;101323.63;;;20.74;51.42
73455;BME280;61690;51.824;6.306;2023-05-11T04:09:22;101309.66;;;20.72;51.70
73455;BME280;61690;51.824;6.306;2023-05-11T04:11:49;101319.31;;;20.73;51.69
73455;BME280;61690;51.824;6.306;2023-05-11T04:14:15;101319.91;;;20.76;51.49
73455;BME280;61690;51.824;6.306;2023-05-11T04:16:42;101318.00;;;20.79;51.66
73455;BME280;61690;51.824;6.306;2023-05-11T04:19:07;101316.00;;;20.82;51.44
73455;BME280;61690;51.824;6.306;2023-05-11T04:21:32;101322.03;;;20.84;51.64
73455;BME280;61690;51.824;6.306;2023-05-11T04:23:57;101313.91;;;20.87;51.38
73455;BME280;61690;51.824;6.306;2023-05-11T04:26:23;101306.63;;;20.91;51.19
73455;BME280;61690;51.824;6.306;2023-05-11T04:28:50;101323.22;;;20.93;51.33
73455;BME280;61690;51.824;6.306;2023-05-11T04:31:16;101318.66;;;20.95;51.27
73455;BME280;61690;51.824;6.306;2023-05-11T04:33:42;101319.31;;;20.99;51.22
73455;BME280;61690;51.824;6.306;2023-05-11T04:36:07;101319.22;;;21.00;51.13
73455;BME280;61690;51.824;6.306;2023-05-11T04:38:33;101322.59;;;21.02;51.08
73455;BME280;61690;51.824;6.306;2023-05-11T04:41:03;101327.78;;;21.04;51.09
73455;BME280;61690;51.824;6.306;2023-05-11T04:43:30;101330.28;;;21.05;51.03
73455;BME280;61690;51.824;6.306;2023-05-11T04:45:56;101325.00;;;21.05;50.94
73455;BME280;61690;51.824;6.306;2023-05-11T04:48:24;101334.66;;;21.06;51.09
73455;BME280;61690;51.824;6.306;2023-05-11T04:50:53;101339.75;;;21.09;51.02
73455;BME280;61690;51.824;6.306;2023-05-11T04:53:20;101338.66;;;21.12;51.04
73455;BME280;61690;51.824;6.306;2023-05-11T04:55:45;101339.41;;;21.14;51.11
73455;BME280;61690;51.824;6.306;2023-05-11T04:58:11;101334.00;;;21.15;50.97
73455;BME280;61690;51.824;6.306;2023-05-11T05:00:37;101336.66;;;21.15;50.91
73455;BME280;61690;51.824;6.306;2023-05-11T05:03:04;101334.00;;;21.15;50.81
73455;BME280;61690;51.824;6.306;2023-05-11T05:05:30;101333.03;;;21.17;50.87
73455;BME280;61690;51.824;6.306;2023-05-11T05:07:56;101339.94;;;21.19;50.84
73455;BME280;61690;51.824;6.306;2023-05-11T05:10:22;101337.84;;;21.11;51.25
73455;BME280;61690;51.824;6.306;2023-05-11T05:12:47;101342.59;;;21.06;52.09
73455;BME280;61690;51.824;6.306;2023-05-11T05:15:13;101348.06;;;21.03;52.03
73455;BME280;61690;51.824;6.306;2023-05-11T05:17:39;101349.88;;;21.03;52.25
73455;BME280;61690;51.824;6.306;2023-05-11T05:20:05;101351.47;;;21.05;52.13
73455;BME280;61690;51.824;6.306;2023-05-11T05:22:31;101353.50;;;21.02;52.49
73455;BME280;61690;51.824;6.306;2023-05-11T05:24:57;101351.88;;;20.99;52.33
73455;BME280;61690;51.824;6.306;2023-05-11T05:27:24;101353.69;;;20.99;52.68
73455;BME280;61690;51.824;6.306;2023-05-11T05:29:49;101359.72;;;21.01;52.48
73455;BME280;61690;51.824;6.306;2023-05-11T05:32:14;101355.25;;;21.01;52.36
73455;BME280;61690;51.824;6.306;2023-05-11T05:34:40;101361.53;;;21.00;52.41
73455;BME280;61690;51.824;6.306;2023-05-11T05:37:05;101356.34;;;20.99;52.51
73455;BME280;61690;51.824;6.306;2023-05-11T05:39:30;101368.81;;;20.97;52.89
73455;BME280;61690;51.824;6.306;2023-05-11T05:41:58;101367.56;;;21.02;52.55
73455;BME280;61690;51.824;6.306;2023-05-11T05:44:26;101374.00;;;20.98;52.64
73455;BME280;61690;51.824;6.306;2023-05-11T05:46:51;101368.91;;;20.95;52.55
73455;BME280;61690;51.824;6.306;2023-05-11T05:49:17;101375.56;;;20.88;52.07
73455;BME280;61690;51.824;6.306;2023-05-11T05:51:42;101376.53;;;20.87;52.46
73455;BME280;61690;51.824;6.306;2023-05-11T05:54:07;101379.91;;;20.89;52.33
73455;BME280;61690;51.824;6.306;2023-05-11T05:56:34;101378.00;;;20.91;52.18
73455;BME280;61690;51.824;6.306;2023-05-11T05:59:06;101382.69;;;21.00;52.03
73455;BME280;61690;51.824;6.306;2023-05-11T06:01:33;101385.53;;;21.23;51.55
73455;BME280;61690;51.824;6.306;2023-05-11T06:03:58;101389.44;;;21.04;52.14
73455;BME280;61690;51.824;6.306;2023-05-11T06:06:24;101388.16;;;20.97;52.15
73455;BME280;61690;51.824;6.306;2023-05-11T06:08:50;101394.94;;;20.88;52.34
73455;BME280;61690;51.824;6.306;2023-05-11T06:11:15;101398.84;;;20.83;52.39
73455;BME280;61690;51.824;6.306;2023-05-11T06:13:50;101397.31;;;20.79;52.60
73455;BME280;61690;51.824;6.306;2023-05-11T06:16:15;101395.66;;;20.78;52.57
73455;BME280;61690;51.824;6.306;2023-05-11T06:18:40;101394.69;;;20.79;52.52
73455;BME280;61690;51.824;6.306;2023-05-11T06:21:06;101395.47;;;20.81;52.54
73455;BME280;61690;51.824;6.306;2023-05-11T06:23:31;101394.59;;;20.80;52.66
73455;BME280;61690;51.824;6.306;2023-05-11T06:25:56;101394.59;;;20.80;52.56
73455;BME280;61690;51.824;6.306;2023-05-11T06:28:28;101399.03;;;20.80;52.63
73455;BME280;61690;51.824;6.306;2023-05-11T06:30:57;101393.75;;;20.80;52.65
73455;BME280;61690;51.824;6.306;2023-05-11T06:33:28;101395.56;;;20.79;52.92
73455;BME280;61690;51.824;6.306;2023-05-11T06:35:53;101396.41;;;20.80;52.84
73455;BME280;61690;51.824;6.306;2023-05-11T06:38:18;101395.56;;;20.79;52.55
73455;BME280;61690;51.824;6.306;2023-05-11T06:40:52;101388.47;;;20.80;52.75
73455;BME280;61690;51.824;6.306;2023-05-11T06:43:18;101396.31;;;20.81;52.67
73455;BME280;61690;51.824;6.306;2023-05-11T06:45:46;101390.78;;;20.84;52.52
73455;BME280;61690;51.824;6.306;2023-05-11T06:48:12;101391.84;;;20.82;52.39
73455;BME280;61690;51.824;6.306;2023-05-11T06:50:39;101395.22;;;20.84;52.66
73455;BME280;61690;51.824;6.306;2023-05-11T06:53:15;101397.03;;;20.83;52.44
73455;BME280;61690;51.824;6.306;2023-05-11T06:55:41;101389.09;;;20.83;52.59
73455;BME280;61690;51.824;6.306;2023-05-11T06:58:07;101399.69;;;20.83;52.62
73455;BME280;61690;51.824;6.306;2023-05-11T07:00:35;101401.59;;;20.81;52.63
73455;BME280;61690;51.824;6.306;2023-05-11T07:03:00;101402.63;;;20.79;52.58
73455;BME280;61690;51.824;6.306;2023-05-11T07:05:26;101402.63;;;20.79;52.93
73455;BME280;61690;51.824;6.306;2023-05-11T07:07:52;101400.75;;;20.81;52.95
73455;BME280;61690;51.824;6.306;2023-05-11T07:10:17;101406.03;;;20.81;52.88
73455;BME280;61690;51.824;6.306;2023-05-11T07:12:43;101406.22;;;20.78;52.71
73455;BME280;61690;51.824;6.306;2023-05-11T07:15:08;101401.78;;;20.78;52.83
73455;BME280;61690;51.824;6.306;2023-05-11T07:17:33;101411.50;;;20.78;52.59
73455;BME280;61690;51.824;6.306;2023-05-11T07:19:59;101415.00;;;20.78;53.19
73455;BME280;61690;51.824;6.306;2023-05-11T07:22:33;101408.03;;;20.77;52.86
73455;BME280;61690;51.824;6.306;2023-05-11T07:25:01;101411.63;;;20.76;52.67
73455;BME280;61690;51.824;6.306;2023-05-11T07:27:26;101411.72;;;20.74;53.01
73455;BME280;61690;51.824;6.306;2023-05-11T07:29:52;101412.66;;;20.73;52.99
73455;BME280;61690;51.824;6.306;2023-05-11T07:32:17;101411.84;;;20.73;53.02
73455;BME280;61690;51.824;6.306;2023-05-11T07:34:54;101406.66;;;20.71;53.01
73455;BME280;61690;51.824;6.306;2023-05-11T07:37:21;101408.53;;;20.69;53.01
73455;BME280;61690;51.824;6.306;2023-05-11T07:39:46;101401.34;;;20.71;52.79
73455;BME280;61690;51.824;6.306;2023-05-11T07:42:12;101408.63;;;20.68;52.89
73455;BME280;61690;51.824;6.306;2023-05-11T07:44:37;101415.50;;;20.70;53.17
73455;BME280;61690;51.824;6.306;2023-05-11T07:47:02;101416.06;;;20.75;53.24
73455;BME280;61690;51.824;6.306;2023-05-11T07:49:27;101413.00;;;20.82;53.26
73455;BME280;61690;51.824;6.306;2023-05-11T07:51:53;101410.25;;;20.83;53.37
73455;BME280;61690;51.824;6.306;2023-05-11T07:54:18;101409.19;;;20.86;53.37
73455;BME280;61690;51.824;6.306;2023-05-11T07:56:43;101403.91;;;20.86;53.66
73455;BME280;61690;51.824;6.306;2023-05-11T07:59:09;101406.34;;;20.89;53.70
73455;BME280;61690;51.824;6.306;2023-05-11T08:01:34;101407.09;;;20.91;53.76
73455;BME280;61690;51.824;6.306;2023-05-11T08:03:59;101408.44;;;20.84;53.78
73455;BME280;61690;51.824;6.306;2023-05-11T08:06:25;101412.81;;;20.85;53.68
73455;BME280;61690;51.824;6.306;2023-05-11T08:08:50;101397.22;;;20.80;53.85
73455;BME280;61690;51.824;6.306;2023-05-11T08:11:16;101414.59;;;20.84;53.80
73455;BME280;61690;51.824;6.306;2023-05-11T08:13:41;101413.66;;;20.85;53.53
73455;BME280;61690;51.824;6.306;2023-05-11T08:16:15;101408.56;;;20.82;53.25
73455;BME280;61690;51.824;6.306;2023-05-11T08:18:44;101408.03;;;20.77;52.98
73455;BME280;61690;51.824;6.306;2023-05-11T08:21:09;101406.53;;;20.73;53.25
73455;BME280;61690;51.824;6.306;2023-05-11T08:23:35;101411.94;;;20.71;53.18
73455;BME280;61690;51.824;6.306;2023-05-11T08:26:00;101412.78;;;20.72;53.24
73455;BME280;61690;51.824;6.306;2023-05-11T08:28:26;101407.66;;;20.69;53.32
73455;BME280;61690;51.824;6.306;2023-05-11T08:30:59;101414.75;;;20.68;53.23
73455;BME280;61690;51.824;6.306;2023-05-11T08:33:25;101414.75;;;20.68;53.03
73455;BME280;61690;51.824;6.306;2023-05-11T08:35:52;101412.97;;;20.69;52.87
73455;BME280;61690;51.824;6.306;2023-05-11T08:38:17;101412.34;;;20.65;52.77
73455;BME280;61690;51.824;6.306;2023-05-11T08:40:44;101416.00;;;20.63;52.90
73455;BME280;61690;51.824;6.306;2023-05-11T08:43:25;101416.00;;;20.63;52.62
73455;BME280;61690;51.824;6.306;2023-05-11T08:45:56;101416.84;;;20.63;52.74
73455;BME280;61690;51.824;6.306;2023-05-11T08:48:25;101414.22;;;20.63;52.90
73455;BME280;61690;51.824;6.306;2023-05-11T08:50:50;101417.81;;;20.62;52.87
73455;BME280;61690;51.824;6.306;2023-05-11T08:53:16;101421.22;;;20.64;53.75
73455;BME280;61690;51.824;6.306;2023-05-11T08:55:46;101419.72;;;20.60;53.77
73455;BME280;61690;51.824;6.306;2023-05-11T08:58:12;101420.63;;;20.59;53.92
73455;BME280;61690;51.824;6.306;2023-05-11T09:00:44;101417.06;;;20.60;53.84
73455;BME280;61690;51.824;6.306;2023-05-11T09:03:09;101426.00;;;20.57;53.77
73455;BME280;61690;51.824;6.306;2023-05-11T09:05:35;101427.81;;;20.57;54.07
73455;BME280;61690;51.824;6.306;2023-05-11T09:08:09;101428.03;;;20.54;53.65
73455;BME280;61690;51.824;6.306;2023-05-11T09:10:42;101419.44;;;20.50;53.89
73455;BME280;61690;51.824;6.306;2023-05-11T09:13:08;101424.91;;;20.47;53.39
73455;BME280;61690;51.824;6.306;2023-05-11T09:15:34;101428.53;;;20.46;53.66
73455;BME280;61690;51.824;6.306;2023-05-11T09:17:59;101431.25;;;20.45;53.83
73455;BME280;61690;51.824;6.306;2023-05-11T09:20:29;101430.78;;;20.38;53.97
73455;BME280;61690;51.824;6.306;2023-05-11T09:23:17;101427.41;;;20.36;54.24
73455;BME280;61690;51.824;6.306;2023-05-11T09:25:43;101431.00;;;20.35;53.99
73455;BME280;61690;51.824;6.306;2023-05-11T09:28:13;101440.09;;;20.31;53.96
73455;BME280;61690;51.824;6.306;2023-05-11T09:30:41;101441.84;;;20.30;53.92
73455;BME280;61690;51.824;6.306;2023-05-11T09:33:06;101439.88;;;20.34;54.00
73455;BME280;61690;51.824;6.306;2023-05-11T09:35:33;101445.06;;;20.35;53.86
73455;BME280;61690;51.824;6.306;2023-05-11T09:38:06;101442.31;;;20.37;53.67
73455;BME280;61690;51.824;6.306;2023-05-11T09:40:37;101446.66;;;20.38;53.64
73455;BME280;61690;51.824;6.306;2023-05-11T09:45:48;101452.69;;;20.40;53.63
73455;BME280;61690;51.824;6.306;2023-05-11T09:50:57;101457.88;;;20.42;53.59
73455;BME280;61690;51.824;6.306;2023-05-11T09:53:41;101459.75;;;20.40;53.70
73455;BME280;61690;51.824;6.306;2023-05-11T09:56:09;101470.34;;;20.40;53.80
73455;BME280;61690;51.824;6.306;2023-05-11T09:58:49;101465.06;;;20.40;53.75
73455;BME280;61690;51.824;6.306;2023-05-11T10:01:32;101464.88;;;20.43;53.44
73455;BME280;61690;51.824;6.306;2023-05-11T10:04:02;101464.13;;;20.41;53.72
73455;BME280;61690;51.824;6.306;2023-05-11T10:06:43;101461.47;;;20.41;53.60
73455;BME280;61690;51.824;6.306;2023-05-11T10:09:14;101460.72;;;20.39;53.67
73455;BME280;61690;51.824;6.306;2023-05-11T10:11:43;101456.38;;;20.37;53.93
73455;BME280;61690;51.824;6.306;2023-05-11T10:14:11;101456.38;;;20.37;53.65
73455;BME280;61690;51.824;6.306;2023-05-11T10:16:39;101455.63;;;20.35;53.74
73455;BME280;61690;51.824;6.306;2023-05-11T10:19:09;101453.00;;;20.35;53.68
73455;BME280;61690;51.824;6.306;2023-05-11T10:21:36;101456.47;;;20.36;53.72
73455;BME280;61690;51.824;6.306;2023-05-11T10:24:02;101453.72;;;20.37;53.55
73455;BME280;61690;51.824;6.306;2023-05-11T10:26:29;101453.72;;;20.37;53.56
73455;BME280;61690;51.824;6.306;2023-05-11T10:28:57;101447.69;;;20.35;53.63
73455;BME280;61690;51.824;6.306;2023-05-11T10:31:27;101453.63;;;20.39;53.58
73455;BME280;61690;51.824;6.306;2023-05-11T10:33:54;101445.72;;;20.39;53.56
73455;BME280;61690;51.824;6.306;2023-05-11T10:36:22;101443.06;;;20.39;53.59
73455;BME280;61690;51.824;6.306;2023-05-11T10:38:48;101442.22;;;20.39;53.70
73455;BME280;61690;51.824;6.306;2023-05-11T10:49:47;101451.84;;;20.40;53.32
73455;BME280;61690;51.824;6.306;2023-05-11T10:58:12;101444.75;;;20.40;53.50
73455;BME280;61690;51.824;6.306;2023-05-11T11:03:25;101446.28;;;20.44;53.31
73455;BME280;61690;51.824;6.306;2023-05-11T11:05:50;101446.28;;;20.44;53.41
73455;BME280;61690;51.824;6.306;2023-05-11T11:08:17;101442.00;;;20.42;53.47
73455;BME280;61690;51.824;6.306;2023-05-11T11:10:44;101438.44;;;20.43;53.55
73455;BME280;61690;51.824;6.306;2023-05-11T11:13:14;101443.72;;;20.43;53.58
73455;BME280;61690;51.824;6.306;2023-05-11T11:18:30;101432.19;;;20.44;53.80
73455;BME280;61690;51.824;6.306;2023-05-11T11:20:59;101432.94;;;20.46;53.40
73455;BME280;61690;51.824;6.306;2023-05-11T11:26:04;101432.00;;;20.47;53.32
73455;BME280;61690;51.824;6.306;2023-05-11T11:31:28;101432.94;;;20.46;53.41
73455;BME280;61690;51.824;6.306;2023-05-11T11:33:55;101433.69;;;20.48;53.72
73455;BME280;61690;51.824;6.306;2023-05-11T11:42:07;101429.53;;;20.44;54.51
73455;BME280;61690;51.824;6.306;2023-05-11T11:44:44;101432.41;;;20.41;54.27
73455;BME280;61690;51.824;6.306;2023-05-11T11:47:20;101422.50;;;20.44;54.06
73455;BME280;61690;51.824;6.306;2023-05-11T11:49:50;101421.53;;;20.45;53.94
73455;BME280;61690;51.824;6.306;2023-05-11T11:54:57;101420.28;;;20.51;54.05
73455;BME280;61690;51.824;6.306;2023-05-11T11:59:56;101430.84;;;20.51;54.33
73455;BME280;61690;51.824;6.306;2023-05-11T12:02:23;101432.56;;;20.52;54.22
73455;BME280;61690;51.824;6.306;2023-05-11T12:05:09;101432.56;;;20.52;54.21
73455;BME280;61690;51.824;6.306;2023-05-11T12:07:41;101432.56;;;20.52;54.49
73455;BME280;61690;51.824;6.306;2023-05-11T12:10:07;101435.22;;;20.52;54.50
73455;BME280;61690;51.824;6.306;2023-05-11T12:12:37;101429.69;;;20.55;54.61
73455;BME280;61690;51.824;6.306;2023-05-11T12:15:03;101429.59;;;20.56;54.68
73455;BME280;61690;51.824;6.306;2023-05-11T12:17:37;101431.28;;;20.57;54.71
73455;BME280;61690;51.824;6.306;2023-05-11T12:20:14;101427.72;;;20.59;54.94
73455;BME280;61690;51.824;6.306;2023-05-11T12:22:41;101425.16;;;20.57;54.93
73455;BME280;61690;51.824;6.306;2023-05-11T12:25:09;101422.44;;;20.59;55.07
73455;BME280;61690;51.824;6.306;2023-05-11T12:27:49;101420.56;;;20.61;54.82
73455;BME280;61690;51.824;6.306;2023-05-11T12:30:19;101420.56;;;20.61;55.02
73455;BME280;61690;51.824;6.306;2023-05-11T12:32:45;101419.72;;;20.60;55.21
73455;BME280;61690;51.824;6.306;2023-05-11T12:35:12;101419.72;;;20.60;55.17
73455;BME280;61690;51.824;6.306;2023-05-11T12:37:40;101417.81;;;20.62;55.00
73455;BME280;61690;51.824;6.306;2023-05-11T12:40:09;101416.84;;;20.63;55.26
73455;BME280;61690;51.824;6.306;2023-05-11T12:42:35;101415.09;;;20.64;55.26
73455;BME280;61690;51.824;6.306;2023-05-11T12:45:01;101421.22;;;20.64;55.00
73455;BME280;61690;51.824;6.306;2023-05-11T12:47:27;101417.63;;;20.65;55.32
73455;BME280;61690;51.824;6.306;2023-05-11T12:49:54;101412.34;;;20.65;55.17
73455;BME280;61690;51.824;6.306;2023-05-11T12:52:22;101408.72;;;20.66;55.16
73455;BME280;61690;51.824;6.306;2023-05-11T12:54:49;101406.19;;;20.65;55.18
73455;BME280;61690;51.824;6.306;2023-05-11T12:57:27;101406.09;;;20.66;55.14
73455;BME280;61690;51.824;6.306;2023-05-11T13:00:15;101401.78;;;20.65;55.15
73455;BME280;61690;51.824;6.306;2023-05-11T13:02:50;101408.72;;;20.66;54.95
73455;BME280;61690;51.824;6.306;2023-05-11T13:05:17;101402.50;;;20.67;54.86
73455;BME280;61690;51.824;6.306;2023-05-11T13:08:09;101405.91;;;20.69;54.88
73455;BME280;61690;51.824;6.306;2023-05-11T13:10:38;101406.84;;;20.68;54.92
73455;BME280;61690;51.824;6.306;2023-05-11T13:13:03;101401.44;;;20.70;54.73
73455;BME280;61690;51.824;6.306;2023-05-11T13:15:28;101404.94;;;20.70;54.69
73455;BME280;61690;51.824;6.306;2023-05-11T13:18:00;101404.09;;;20.70;54.68
73455;BME280;61690;51.824;6.306;2023-05-11T13:20:32;101399.75;;;20.69;54.69
73455;BME280;61690;51.824;6.306;2023-05-11T13:23:20;101401.44;;;20.70;54.55
73455;BME280;61690;51.824;6.306;2023-05-11T13:28:14;101402.38;;;20.69;54.58
73455;BME280;61690;51.824;6.306;2023-05-11T13:30:40;101397.75;;;20.72;54.45
73455;BME280;61690;51.824;6.306;2023-05-11T13:33:05;101397.75;;;20.72;54.34
73455;BME280;61690;51.824;6.306;2023-05-11T13:35:31;101402.00;;;20.75;54.04
73455;BME280;61690;51.824;6.306;2023-05-11T13:37:56;101399.47;;;20.73;54.25
73455;BME280;61690;51.824;6.306;2023-05-11T13:40:22;101396.72;;;20.75;54.38
73455;BME280;61690;51.824;6.306;2023-05-11T13:42:49;101396.81;;;20.73;54.03
73455;BME280;61690;51.824;6.306;2023-05-11T13:45:15;101396.81;;;20.73;54.05
73455;BME280;61690;51.824;6.306;2023-05-11T13:47:40;101391.44;;;20.75;54.21